Time;durP1;ratioP1;P1;durP2;ratioP2;P2;SDS_P1;SDS_P2;PMS_P1;PMS_P2;Temp;Humidity;BMP_temperature;BMP_pressure;BME280_temperature;BME280_humidity;BME280_pressure;Samples;Min_cycle;Max_cycle;Signal;HPM_P1;HPM_P2
2022/11/27 00:01:28;;;;;;;;;;;;;;;4.28;100.00;101686.25;1437459;89;21530;-82
2022/11/27 00:03:55;;;;;;;132.57;51.50;;;;;;;4.25;99.97;101687.71;1453102;89;20250;-81
2022/11/27 00:06:25;;;;;;;136.43;53.80;;;;;;;4.27;100.00;101691.12;1457262;89;21537;-81
2022/11/27 00:08:52;;;;;;;132.12;52.83;;;;;;;4.28;100.00;101687.55;1424327;90;21478;-81
2022/11/27 00:11:22;;;;;;;128.63;54.17;;;;;;;4.32;100.00;101687.81;1454061;89;21426;-82
2022/11/27 00:13:50;;;;;;;129.47;53.10;;;;;;;4.36;100.00;101688.03;1450659;89;21390;-81
2022/11/27 00:16:18;;;;;;;125.27;49.70;;;;;;;4.40;100.00;101690.91;1434196;89;22329;-81
2022/11/27 00:18:44;;;;;;;131.23;52.90;;;;;;;4.39;100.00;101690.50;1440468;89;22380;-82
2022/11/27 00:21:18;;;;;;;137.50;54.70;;;;;;;4.38;100.00;101684.87;1423674;90;21456;-81
2022/11/27 00:23:44;;;;;;;150.33;58.73;;;;;;;4.33;100.00;101689.50;1444616;89;21602;-79
2022/11/27 00:26:15;;;;;;;138.57;52.73;;;;;;;4.27;100.00;101684.09;1459557;89;21625;-82
2022/11/27 00:28:42;;;;;;;139.17;58.10;;;;;;;4.24;100.00;101684.72;1457418;89;21536;-83
2022/11/27 00:31:17;;;;;;;147.87;58.63;;;;;;;4.24;100.00;101693.89;1461030;89;21625;-83
2022/11/27 00:33:43;;;;;;;140.47;55.70;;;;;;;4.28;100.00;101690.17;1463164;89;22501;-83
2022/11/27 00:36:11;;;;;;;135.90;56.47;;;;;;;4.34;100.00;101693.80;1454333;89;21508;-83
2022/11/27 00:38:37;;;;;;;155.43;63.07;;;;;;;4.37;100.00;101694.95;1434629;90;21486;-82
2022/11/27 00:41:10;;;;;;;151.70;59.67;;;;;;;4.37;100.00;101693.64;1435691;91;21493;-84
2022/11/27 00:43:38;;;;;;;143.50;56.93;;;;;;;4.37;100.00;101696.73;1430156;89;21546;-84
2022/11/27 00:46:04;;;;;;;150.17;55.63;;;;;;;4.39;100.00;101698.83;1454132;89;21478;-84
2022/11/27 00:48:31;;;;;;;140.07;53.80;;;;;;;4.38;100.00;101692.73;1434483;89;22484;-84
2022/11/27 00:51:03;;;;;;;134.80;51.60;;;;;;;4.38;100.00;101695.36;1437948;89;21448;-82
2022/11/27 00:53:30;;;;;;;137.43;54.47;;;;;;;4.40;100.00;101697.45;1434240;91;21501;-83
2022/11/27 00:55:57;;;;;;;139.47;54.67;;;;;;;4.43;100.00;101690.75;1458772;89;21544;-82
2022/11/27 00:58:24;;;;;;;137.73;52.73;;;;;;;4.46;100.00;101694.52;1452345;89;22242;-83
2022/11/27 01:01:04;;;;;;;147.03;57.13;;;;;;;4.45;100.00;101696.73;1455666;89;22395;-84
2022/11/27 01:03:32;;;;;;;137.83;53.20;;;;;;;4.45;100.00;101696.73;1434916;91;21620;-81
2022/11/27 01:06:04;;;;;;;127.87;49.57;;;;;;;4.43;100.00;101695.98;1455004;89;21381;-81
2022/11/27 01:08:31;;;;;;;131.40;51.40;;;;;;;4.39;100.00;101697.05;1466051;89;21441;-81
2022/11/27 01:10:58;;;;;;;115.07;46.00;;;;;;;4.33;100.00;101690.80;1462173;89;22248;-81
2022/11/27 01:13:29;;;;;;;128.27;48.77;;;;;;;4.32;100.00;101693.52;1429135;89;21516;-82
2022/11/27 01:16:10;;;;;;;117.57;47.90;;;;;;;4.32;100.00;101690.43;1459839;89;21524;-80
2022/11/27 01:18:39;;;;;;;123.87;48.33;;;;;;;4.29;100.00;101684.87;1453539;89;21538;-81
2022/11/27 01:21:06;;;;;;;101.97;45.03;;;;;;;4.29;100.00;101691.89;1440567;89;22463;-81
2022/11/27 01:23:32;;;;;;;115.60;48.50;;;;;;;4.28;100.00;101690.17;1432375;90;21766;-79
2022/11/27 01:26:04;;;;;;;98.53;43.87;;;;;;;4.32;100.00;101685.66;1457106;89;21656;-81
2022/11/27 01:28:31;;;;;;;122.63;47.80;;;;;;;4.33;100.00;101684.25;1461419;89;21626;-83
2022/11/27 01:30:58;;;;;;;118.97;48.03;;;;;;;4.35;100.00;101686.81;1477149;89;21500;-81
2022/11/27 01:33:24;;;;;;;126.73;45.83;;;;;;;4.33;100.00;101688.19;1461842;89;22366;-81
2022/11/27 01:36:00;;;;;;;116.17;48.37;;;;;;;4.30;100.00;101688.34;1460930;89;21574;-81
2022/11/27 01:38:27;;;;;;;118.23;46.30;;;;;;;4.29;100.00;101682.72;1453141;89;21582;-81
2022/11/27 01:41:01;;;;;;;106.20;43.73;;;;;;;4.29;100.00;101685.34;1456522;89;21500;-82
2022/11/27 01:43:47;;;;;;;119.30;50.27;;;;;;;4.30;100.00;101684.41;1455021;89;22800;-80
2022/11/27 01:46:37;;;;;;;110.33;47.10;;;;;;;4.25;100.00;101681.16;1455901;88;21500;-81
2022/11/27 01:49:14;;;;;;;120.80;44.00;;;;;;;4.24;100.00;101684.72;1452825;89;22417;-81
2022/11/27 01:51:49;;;;;;;101.57;42.93;;;;;;;4.25;100.00;101688.55;1423755;91;21625;-81
2022/11/27 01:54:17;;;;;;;106.83;44.40;;;;;;;4.24;100.00;101686.03;1426681;91;21457;-81
2022/11/27 01:56:47;;;;;;;115.37;45.43;;;;;;;4.24;100.00;101696.51;1462275;89;22352;-81
2022/11/27 01:59:15;;;;;;;122.50;51.00;;;;;;;4.26;100.00;101682.88;1444899;89;21449;-81
2022/11/27 02:01:41;;;;;;;111.63;48.90;;;;;;;4.29;100.00;101678.33;1440600;89;21524;-81
2022/11/27 02:04:07;;;;;;;109.30;46.57;;;;;;;4.29;100.00;101677.48;1454650;89;21471;-81
2022/11/27 02:06:35;;;;;;;110.97;45.10;;;;;;;4.33;100.00;101690.80;1454475;89;22528;-82
2022/11/27 02:09:01;;;;;;;115.33;49.17;;;;;;;4.31;100.00;101690.02;1441127;89;21642;-81
2022/11/27 02:11:51;;;;;;;126.57;50.90;;;;;;;4.29;100.00;101685.34;1441066;89;22339;-81
2022/11/27 02:14:29;;;;;;;123.27;49.70;;;;;;;4.28;100.00;101685.78;1463491;89;21404;-80
2022/11/27 02:17:29;;;;;;;122.57;50.00;;;;;;;4.28;100.00;101686.25;1445078;89;21655;-81
2022/11/27 02:20:13;;;;;;;117.80;50.48;;;;;;;4.22;100.00;101672.14;1453431;89;21540;-81
2022/11/27 02:22:51;;;;;;;119.33;51.93;;;;;;;4.32;100.00;101688.28;1453618;89;21397;-80
2022/11/27 02:25:34;;;;;;;126.87;54.37;;;;;;;4.34;100.00;101682.00;1450893;89;21556;-81
2022/11/27 02:28:34;;;;;;;115.07;48.90;;;;;;;4.38;100.00;101686.19;1441503;89;22454;-81
2022/11/27 02:31:24;;;;;;;116.27;53.60;;;;;;;4.47;100.00;101690.13;1456691;89;21538;-81
2022/11/27 02:33:55;;;;;;;123.93;51.83;;;;;;;4.47;100.00;101690.13;1458270;89;21931;-81
2022/11/27 02:36:25;;;;;;;127.02;50.73;;;;;;;4.41;100.00;101696.52;1463731;89;21497;-81
2022/11/27 02:39:10;;;;;;;118.33;48.05;;;;;;;4.38;100.00;101696.67;1460432;89;21962;-82
2022/11/27 02:41:50;;;;;;;105.67;45.20;;;;;;;4.37;100.00;101705.44;1443830;89;21551;-82
2022/11/27 02:44:18;;;;;;;121.67;53.52;;;;;;;4.39;100.00;101703.60;1437140;89;21530;-81
2022/11/27 02:46:45;;;;;;;115.70;49.27;;;;;;;4.40;100.00;101701.83;1451326;89;21553;-82
2022/11/27 02:49:15;;;;;;;104.77;44.77;;;;;;;4.41;100.00;101698.30;1464025;89;21353;-82
2022/11/27 02:51:47;;;;;;;111.03;44.07;;;;;;;4.43;100.00;101699.92;1458706;89;21405;-82
2022/11/27 02:54:18;;;;;;;105.53;44.60;;;;;;;4.45;100.00;101692.80;1461824;89;22557;-82
2022/11/27 02:56:47;;;;;;;101.83;46.77;;;;;;;4.45;100.00;101690.18;1439722;91;21532;-82
2022/11/27 02:59:15;;;;;;;113.23;46.87;;;;;;;4.43;100.00;101698.61;1449313;89;22345;-81
2022/11/27 03:01:46;;;;;;;115.20;46.40;;;;;;;4.39;100.00;101694.89;1452314;89;22329;-81
2022/11/27 03:04:18;;;;;;;111.70;45.50;;;;;;;4.37;100.00;101692.33;1448635;88;21361;-81
2022/11/27 03:06:56;;;;;;;111.63;47.00;;;;;;;4.34;100.00;101685.94;1430833;89;21861;-82
2022/11/27 03:09:30;;;;;;;120.73;52.63;;;;;;;4.34;100.00;101686.41;1437076;89;21464;-83
2022/11/27 03:11:57;;;;;;;121.33;49.97;;;;;;;4.37;100.00;101692.33;1440999;89;21309;-82
2022/11/27 03:14:24;;;;;;;118.00;49.80;;;;;;;4.39;100.00;101687.03;1441436;89;21473;-82
2022/11/27 03:17:41;;;;;;;115.90;46.70;;;;;;;4.43;100.00;101688.13;1448746;89;21406;-81
2022/11/27 03:20:28;;;;;;;106.33;45.03;;;;;;;4.47;100.00;101693.58;1468083;89;21390;-82
2022/11/27 03:22:55;;;;;;;104.83;45.23;;;;;;;4.51;100.00;101692.48;1440250;89;21479;-83
2022/11/27 03:25:23;;;;;;;120.93;47.53;;;;;;;4.50;100.00;101701.29;1449549;89;21471;-81
2022/11/27 03:28:00;;;;;;;109.20;43.70;;;;;;;4.47;100.00;101701.91;1471977;89;22462;-81
2022/11/27 03:30:27;;;;;;;124.53;50.67;;;;;;;4.45;100.00;101704.60;1461985;89;21416;-83
2022/11/27 03:32:54;;;;;;;103.00;43.57;;;;;;;4.43;100.00;101709.09;1452306;89;21635;-83
2022/11/27 03:35:24;;;;;;;109.00;47.27;;;;;;;4.36;100.00;101709.47;1423367;89;22138;-80
2022/11/27 03:37:52;;;;;;;109.90;48.50;;;;;;;4.37;100.00;101707.22;1441676;91;22402;-82
2022/11/27 03:40:20;;;;;;;112.77;46.97;;;;;;;4.39;100.00;101710.63;1433621;91;21383;-82
2022/11/27 03:43:12;;;;;;;96.70;43.73;;;;;;;4.39;100.00;101706.22;1418798;91;21302;-80
2022/11/27 03:45:58;;;;;;;102.37;44.87;;;;;;;4.41;100.00;101714.87;1457781;89;22438;-83
2022/11/27 03:49:00;;;;;;;106.10;47.47;;;;;;;4.45;100.00;101715.09;1454482;89;22351;-82
2022/11/27 03:51:47;;;;;;;115.97;48.23;;;;;;;4.46;100.00;101719.42;1438160;89;21427;-81
2022/11/27 03:54:27;;;;;;;109.03;48.67;;;;;;;4.34;100.00;101713.45;1439160;89;22261;-81
2022/11/27 03:57:14;;;;;;;111.17;48.73;;;;;;;4.34;100.00;101713.45;1454637;89;21331;-82
2022/11/27 03:59:43;;;;;;;97.13;43.30;;;;;;;4.35;100.00;101720.42;1441539;89;21368;-82
2022/11/27 04:02:14;;;;;;;108.40;46.23;;;;;;;4.26;100.00;101723.50;1461358;89;21634;-82
2022/11/27 04:04:41;;;;;;;110.37;46.53;;;;;;;4.33;100.00;101719.64;1456458;89;22276;-82
2022/11/27 04:07:10;;;;;;;106.80;48.03;;;;;;;4.37;100.00;101718.55;1460197;89;21330;-82
2022/11/27 04:09:36;;;;;;;108.00;46.63;;;;;;;4.45;100.00;101720.33;1464416;89;22446;-82
2022/11/27 04:12:02;;;;;;;119.57;48.83;;;;;;;4.46;100.00;101728.60;1448100;89;21391;-82
2022/11/27 04:14:28;;;;;;;105.67;45.60;;;;;;;4.47;100.00;101717.18;1432050;91;21376;-81
2022/11/27 04:16:54;;;;;;;112.13;46.63;;;;;;;4.50;100.00;101715.71;1438376;91;21486;-82
2022/11/27 04:19:20;;;;;;;122.03;52.07;;;;;;;4.51;100.00;101725.27;1434308;91;23210;-83
2022/11/27 04:21:46;;;;;;;103.20;47.87;;;;;;;4.46;100.00;101720.73;1435312;91;22249;-82
2022/11/27 04:24:12;;;;;;;123.83;50.37;;;;;;;4.45;100.00;101712.94;1448382;89;21353;-83
2022/11/27 04:26:38;;;;;;;111.73;47.40;;;;;;;4.45;100.00;101715.55;1449174;89;21503;-83
2022/11/27 04:29:04;;;;;;;121.97;50.63;;;;;;;4.47;100.00;101709.78;1461377;89;21589;-82
2022/11/27 04:31:30;;;;;;;115.03;47.30;;;;;;;4.48;100.00;101715.40;1457362;89;21530;-84
2022/11/27 04:33:57;;;;;;;103.47;44.73;;;;;;;4.44;100.00;101717.33;1456225;89;21494;-83
2022/11/27 04:36:22;;;;;;;108.80;46.80;;;;;;;4.42;100.00;101709.16;1445647;89;21355;-83
2022/11/27 04:38:48;;;;;;;127.73;49.93;;;;;;;4.38;100.00;101704.53;1440232;90;21407;-84
2022/11/27 04:41:15;;;;;;;115.13;44.53;;;;;;;4.33;100.00;101706.53;1447136;89;21353;-82
2022/11/27 04:43:41;;;;;;;114.10;45.73;;;;;;;4.30;100.00;101711.92;1462596;89;22137;-82
2022/11/27 04:46:07;;;;;;;112.30;45.37;;;;;;;4.30;100.00;101698.36;1439705;89;21412;-81
2022/11/27 04:48:33;;;;;;;107.17;42.63;;;;;;;4.34;100.00;101709.53;1473398;89;22404;-84
2022/11/27 04:50:59;;;;;;;110.13;45.17;;;;;;;4.34;100.00;101696.42;1463533;89;21411;-82
2022/11/27 04:53:25;;;;;;;111.23;45.63;;;;;;;4.35;100.00;101709.94;1462749;89;22051;-83
2022/11/27 04:55:51;;;;;;;111.97;46.43;;;;;;;4.36;100.00;101697.67;1454457;89;21536;-82
2022/11/27 04:58:17;;;;;;;116.63;49.47;;;;;;;4.37;100.00;101701.98;1457184;89;21404;-83
2022/11/27 05:00:44;;;;;;;109.07;46.60;;;;;;;4.38;100.00;101703.70;1447831;89;22299;-83
2022/11/27 05:03:10;;;;;;;121.90;45.33;;;;;;;4.37;100.00;101704.13;1435508;91;21516;-83
2022/11/27 05:05:37;;;;;;;130.37;49.47;;;;;;;4.37;100.00;101714.61;1433652;90;21330;-83
2022/11/27 05:08:03;;;;;;;123.53;47.70;;;;;;;4.36;100.00;101713.40;1443111;89;21477;-83
2022/11/27 05:10:29;;;;;;;125.93;48.27;;;;;;;4.33;100.00;101714.39;1460414;89;21553;-84
2022/11/27 05:12:55;;;;;;;125.53;52.40;;;;;;;4.33;100.00;101711.77;1443860;89;22256;-83
2022/11/27 05:15:22;;;;;;;116.30;48.83;;;;;;;4.34;100.00;101710.84;1459808;89;21353;-82
2022/11/27 05:17:48;;;;;;;120.67;48.90;;;;;;;4.34;100.00;101708.22;1436143;89;21363;-82
2022/11/27 05:20:13;;;;;;;114.63;50.27;;;;;;;4.36;100.00;101705.06;1444308;89;21398;-83
2022/11/27 05:22:40;;;;;;;129.20;53.97;;;;;;;4.35;100.00;101715.17;1460567;89;22197;-84
2022/11/27 05:25:06;;;;;;;127.70;51.07;;;;;;;4.38;100.00;101712.88;1455052;89;21459;-83
2022/11/27 05:27:32;;;;;;;128.10;50.70;;;;;;;4.35;100.00;101713.86;1450702;89;21497;-83
2022/11/27 05:29:58;;;;;;;118.83;48.80;;;;;;;4.34;100.00;101711.30;1452936;89;21301;-83
2022/11/27 05:32:24;;;;;;;124.77;47.50;;;;;;;4.33;100.00;101711.77;1462206;89;21324;-85
2022/11/27 05:34:51;;;;;;;108.73;44.23;;;;;;;4.34;100.00;101717.86;1452785;89;21302;-83
2022/11/27 05:37:16;;;;;;;92.80;40.17;;;;;;;4.35;100.00;101718.27;1442074;91;21354;-82
2022/11/27 05:39:44;;;;;;;81.63;37.30;;;;;;;4.38;100.00;101718.95;1431807;89;21630;-83
2022/11/27 05:42:10;;;;;;;96.80;43.57;;;;;;;4.38;100.00;101713.71;1445396;89;22329;-83
2022/11/27 05:44:36;;;;;;;88.67;35.80;;;;;;;4.38;100.00;101715.02;1434615;91;21353;-82
2022/11/27 05:47:02;;;;;;;94.73;39.33;;;;;;;4.43;100.00;101710.41;1459279;89;21309;-82
2022/11/27 05:49:28;;;;;;;93.27;40.60;;;;;;;4.45;100.00;101713.78;1405750;91;21457;-82
2022/11/27 05:51:54;;;;;;;88.73;37.47;;;;;;;4.46;100.00;101720.73;1437752;89;21500;-82
2022/11/27 05:54:20;;;;;;;91.37;39.00;;;;;;;4.47;100.00;101716.34;1438963;89;21383;-83
2022/11/27 05:56:46;;;;;;;91.33;38.77;;;;;;;4.48;100.00;101718.86;1463017;89;22247;-80
2022/11/27 05:59:13;;;;;;;92.00;38.07;;;;;;;4.47;100.00;101715.87;1443209;91;21367;-81
2022/11/27 06:01:40;;;;;;;83.73;38.47;;;;;;;4.46;100.00;101718.55;1435538;89;21361;-83
2022/11/27 06:04:06;;;;;;;74.10;35.73;;;;;;;4.45;100.00;101716.40;1460336;89;21563;-84
2022/11/27 06:06:32;;;;;;;72.33;34.60;;;;;;;4.46;100.00;101718.11;1436881;89;21361;-84
2022/11/27 06:08:58;;;;;;;74.20;33.93;;;;;;;4.51;100.00;101717.40;1434535;89;21390;-84
2022/11/27 06:11:24;;;;;;;81.90;34.30;;;;;;;4.57;100.00;101719.33;1451260;89;21345;-84
2022/11/27 06:13:50;;;;;;;86.47;38.27;;;;;;;4.61;100.00;101716.95;1462108;89;21390;-84
2022/11/27 06:16:22;;;;;;;81.63;35.03;;;;;;;4.67;100.00;101714.02;1458549;89;22211;-83
2022/11/27 06:18:51;;;;;;;82.67;35.03;;;;;;;4.68;100.00;101719.64;1462627;89;21457;-84
2022/11/27 06:21:39;;;;;;;78.63;34.03;;;;;;;4.66;100.00;101724.11;1464217;89;21353;-83
2022/11/27 06:24:06;;;;;;;73.97;33.07;;;;;;;4.62;100.00;101726.52;1466886;89;21353;-83
2022/11/27 06:26:33;;;;;;;76.27;33.57;;;;;;;4.58;100.00;101727.14;1463348;89;21493;-83
2022/11/27 06:29:00;;;;;;;83.40;35.83;;;;;;;4.58;100.00;101727.14;1468890;89;21504;-84
2022/11/27 06:31:30;;;;;;;80.73;34.13;;;;;;;4.60;100.00;101729.66;1467199;89;21345;-82
2022/11/27 06:33:57;;;;;;;83.20;35.43;;;;;;;4.59;100.00;101724.89;1468332;89;21257;-82
2022/11/27 06:36:28;;;;;;;93.03;37.87;;;;;;;4.63;100.00;101721.64;1458069;89;22298;-83
2022/11/27 06:38:54;;;;;;;;;;;;;;;4.64;100.00;101721.58;1467868;89;21322;-82
2022/11/27 06:41:23;;;;;;;78.70;32.80;;;;;;;4.61;100.00;101731.38;1461745;89;20746;-82
2022/11/27 06:43:50;;;;;;;67.00;29.67;;;;;;;4.53;100.00;101732.59;1466288;89;21272;-82
2022/11/27 06:46:19;;;;;;;64.77;29.30;;;;;;;4.41;100.00;101737.15;1465609;89;21396;-82
2022/11/27 06:48:49;;;;;;;66.37;32.57;;;;;;;4.43;100.00;101737.93;1465948;89;22291;-82
2022/11/27 06:51:20;;;;;;;60.00;29.60;;;;;;;4.44;100.00;101733.06;1464042;89;21375;-82
2022/11/27 06:53:46;;;;;;;68.70;32.08;;;;;;;4.43;100.00;101732.69;1471771;89;21271;-82
2022/11/27 06:56:17;;;;;;;60.13;26.10;;;;;;;4.47;100.00;101739.93;1467816;89;21338;-83
2022/11/27 06:58:44;;;;;;;57.80;27.80;;;;;;;4.49;100.00;101727.14;1475739;89;22286;-82
2022/11/27 07:01:15;;;;;;;57.07;27.93;;;;;;;4.50;100.00;101730.13;1468381;89;22313;-81
2022/11/27 07:03:41;;;;;;;57.00;28.92;;;;;;;4.50;100.00;101735.84;1463785;89;21316;-82
2022/11/27 07:06:11;;;;;;;59.70;28.47;;;;;;;4.51;100.00;101729.19;1447566;90;21418;-82
2022/11/27 07:08:37;;;;;;;64.20;29.97;;;;;;;4.51;100.00;101729.19;1433960;89;21448;-83
2022/11/27 07:11:11;;;;;;;70.50;29.17;;;;;;;4.50;100.00;101727.51;1468468;89;21376;-82
2022/11/27 07:13:37;;;;;;;55.63;25.53;;;;;;;4.48;100.00;101726.73;1463803;89;21677;-83
2022/11/27 07:16:07;;;;;;;54.30;26.40;;;;;;;4.49;100.00;101727.61;1461009;89;21448;-81
2022/11/27 07:18:37;;;;;;;60.30;30.27;;;;;;;4.51;100.00;101729.19;1456327;89;21471;-83
2022/11/27 07:21:04;;;;;;;67.93;31.40;;;;;;;4.53;100.00;101735.22;1460943;89;22387;-83
2022/11/27 07:23:30;;;;;;;62.53;27.90;;;;;;;4.59;100.00;101738.47;1463843;89;22976;-82
2022/11/27 07:25:56;;;;;;;63.77;30.07;;;;;;;4.65;100.00;101742.09;1460279;89;21599;-81
2022/11/27 07:28:23;;;;;;;62.77;29.77;;;;;;;4.67;100.00;101741.09;1464173;89;21448;-82
2022/11/27 07:30:56;;;;;;;62.97;29.07;;;;;;;4.68;100.00;101741.94;1446942;89;21374;-83
2022/11/27 07:33:24;;;;;;;63.07;30.47;;;;;;;4.62;100.00;101738.31;1460144;89;22174;-82
2022/11/27 07:36:08;;;;;;;74.57;35.80;;;;;;;4.62;100.00;101742.24;1459445;89;21316;-81
2022/11/27 07:38:34;;;;;;;58.90;26.90;;;;;;;4.66;100.00;101742.46;1458310;89;22224;-82
2022/11/27 07:41:02;;;;;;;67.57;32.03;;;;;;;4.71;100.00;101739.16;1465371;89;21479;-84
2022/11/27 07:43:29;;;;;;;59.13;27.73;;;;;;;4.75;100.00;101740.24;1461203;89;21353;-84
2022/11/27 07:45:57;;;;;;;52.43;25.20;;;;;;;4.79;100.00;101731.75;1465829;89;21286;-85
2022/11/27 07:48:23;;;;;;;65.20;32.23;;;;;;;4.86;100.00;101735.77;1466485;89;21249;-84
2022/11/27 07:50:49;;;;;;;67.43;31.77;;;;;;;4.89;100.00;101734.30;1463264;89;21433;-84
2022/11/27 07:53:15;;;;;;;149.20;44.20;;;;;;;4.89;100.00;101738.23;1469001;89;21367;-81
2022/11/27 07:55:44;;;;;;;100.40;38.60;;;;;;;4.85;100.00;101732.73;1439388;90;21377;-80
2022/11/27 07:58:10;;;;;;;61.13;30.33;;;;;;;4.84;100.00;101736.30;1427527;90;21455;-81
2022/11/27 08:00:37;;;;;;;59.37;28.50;;;;;;;4.86;100.00;101733.58;1454127;89;21474;-82
2022/11/27 08:03:03;;;;;;;77.40;33.83;;;;;;;4.88;100.00;101728.64;1462012;89;21344;-81
2022/11/27 08:05:35;;;;;;;63.93;30.47;;;;;;;4.92;100.00;101723.64;1469607;89;21295;-81
2022/11/27 08:08:03;;;;;;;60.23;27.97;;;;;;;4.98;100.00;101720.70;1466786;89;21493;-82
2022/11/27 08:10:36;;;;;;;90.10;40.97;;;;;;;5.04;100.00;101721.31;1461815;89;22283;-82
2022/11/27 08:13:04;;;;;;;91.07;44.20;;;;;;;5.03;100.00;101730.09;1455719;89;21471;-81
2022/11/27 08:15:38;;;;;;;100.33;52.33;;;;;;;5.00;100.00;101734.19;1466943;89;21944;-82
2022/11/27 08:18:04;;;;;;;112.43;57.17;;;;;;;4.97;100.00;101732.56;1467710;89;21471;-82
2022/11/27 08:20:30;;;;;;;79.60;34.50;;;;;;;5.00;100.00;101737.66;1458708;89;22173;-83
2022/11/27 08:22:57;;;;;;;89.20;37.20;;;;;;;4.92;100.00;101738.51;1465225;88;21411;-80
2022/11/27 08:25:23;;;;;;;96.73;41.20;;;;;;;4.83;100.00;101738.52;1465436;89;21463;-82
2022/11/27 08:27:49;;;;;;;106.07;50.67;;;;;;;4.84;100.00;101735.45;1466331;89;21427;-83
2022/11/27 08:30:27;;;;;;;98.07;44.20;;;;;;;4.90;100.00;101735.98;1463947;89;21471;-82
2022/11/27 08:32:53;;;;;;;118.57;56.17;;;;;;;4.94;100.00;101732.26;1468288;89;22100;-83
2022/11/27 08:35:21;;;;;;;110.63;50.80;;;;;;;5.03;100.00;101738.80;1463725;89;21345;-82
2022/11/27 08:37:47;;;;;;;73.70;33.23;;;;;;;5.06;100.00;101743.05;1463616;89;21220;-90
2022/11/27 08:40:14;;;;;;;74.47;34.17;;;;;;;5.11;100.00;101749.75;1466491;89;22351;-90
2022/11/27 08:42:44;;;;;;;88.73;37.90;;;;;;;5.16;100.00;101749.53;1457470;89;21346;-90
2022/11/27 08:45:10;;;;;;;75.70;35.92;;;;;;;5.13;100.00;101751.00;1467230;89;21467;-90
2022/11/27 08:47:37;;;;;;;83.87;37.60;;;;;;;5.16;100.00;101755.62;1461435;89;21316;-91
2022/11/27 08:50:04;;;;;;;70.97;31.60;;;;;;;5.17;100.00;101753.37;1457904;89;21396;-92
2022/11/27 08:52:31;;;;;;;69.10;31.47;;;;;;;5.16;100.00;101752.99;1466388;89;22310;-92
2022/11/27 08:54:58;;;;;;;65.97;33.97;;;;;;;5.19;100.00;101742.80;1465670;89;21547;-91
2022/11/27 08:57:24;;;;;;;57.30;26.63;;;;;;;5.22;100.00;101736.08;1465598;89;21412;-91
2022/11/27 08:59:52;;;;;;;54.93;24.87;;;;;;;5.25;100.00;101745.57;1463163;89;21300;-91
2022/11/27 09:02:18;;;;;;;47.90;23.63;;;;;;;5.27;100.00;101743.72;1465506;89;21802;-91
2022/11/27 09:04:44;;;;;;;46.40;24.47;;;;;;;5.28;100.00;101738.37;1465496;89;21351;-92
2022/11/27 09:07:13;;;;;;;44.27;22.27;;;;;;;5.29;100.00;101743.15;1470619;89;21323;-90
2022/11/27 09:09:38;;;;;;;54.17;27.03;;;;;;;5.29;100.00;101740.05;1457976;87;22326;-89
2022/11/27 09:12:04;;;;;;;102.27;28.83;;;;;;;5.30;100.00;101739.15;1468646;87;21403;-87
2022/11/27 09:14:30;;;;;;;559.27;88.80;;;;;;;5.30;100.00;101733.90;1442466;89;21648;-90
2022/11/27 09:16:56;;;;;;;119.83;35.07;;;;;;;5.29;100.00;101726.93;1469461;88;21381;-90
2022/11/27 09:19:23;;;;;;;102.47;30.13;;;;;;;5.31;100.00;101729.02;1468159;88;21419;-89
2022/11/27 09:21:49;;;;;;;44.70;24.10;;;;;;;5.33;100.00;101724.55;1465839;88;21345;-89
2022/11/27 09:24:16;;;;;;;65.50;28.30;;;;;;;5.37;100.00;101726.06;1465726;88;22344;-87
2022/11/27 09:26:43;;;;;;;64.20;28.40;;;;;;;5.39;100.00;101722.89;1474213;88;21485;-88
2022/11/27 09:29:09;;;;;;;60.83;23.60;;;;;;;5.45;100.00;101723.50;1474214;88;21404;-93
2022/11/27 09:31:36;;;;;;;130.90;36.23;;;;;;;5.46;99.97;101720.78;1465273;88;21360;-91
2022/11/27 09:34:03;;;;;;;51.03;21.20;;;;;;;5.41;98.77;101727.61;1470180;88;21322;-91
2022/11/27 09:36:29;;;;;;;40.00;21.27;;;;;;;5.37;98.18;101723.44;1467123;88;21316;-84
2022/11/27 09:38:58;;;;;;;43.83;21.73;;;;;;;5.32;98.06;101716.30;1472886;88;21352;-79
2022/11/27 09:41:44;;;;;;;44.13;22.83;;;;;;;5.25;98.42;101717.54;1443437;88;22246;-90
2022/11/27 09:44:44;;;;;;;43.77;25.37;;;;;;;5.28;99.44;101710.81;1469321;88;22284;-90
2022/11/27 09:47:22;;;;;;;48.23;26.00;;;;;;;5.37;100.00;101711.63;1467812;88;21440;-87
2022/11/27 09:50:06;;;;;;;67.80;27.67;;;;;;;5.48;100.00;101713.67;1466202;88;21508;-91
2022/11/27 09:52:48;;;;;;;95.00;28.47;;;;;;;5.56;99.98;101710.64;1466817;88;22432;-89
2022/11/27 09:55:34;;;;;;;61.27;27.53;;;;;;;5.47;96.44;101713.74;1466855;88;21516;-90
2022/11/27 09:58:12;;;;;;;56.33;28.33;;;;;;;5.42;97.35;101712.70;1469063;88;22104;-92
2022/11/27 10:00:38;;;;;;;54.83;28.67;;;;;;;5.42;98.21;101717.95;1548740;88;21281;-90
2022/11/27 10:03:13;;;;;;;44.53;24.60;;;;;;;5.38;98.22;101713.34;1389398;91;21203;-84
2022/11/27 10:05:47;;;;;;;53.43;26.77;;;;;;;5.35;97.86;101713.50;1472407;88;21999;-86
2022/11/27 10:08:22;;;;;;;52.23;25.97;;;;;;;5.36;98.26;101712.56;1402597;88;22269;-86
2022/11/27 10:11:14;;;;;;;53.17;28.90;;;;;;;5.37;98.18;101702.44;1470195;88;21447;-86
2022/11/27 10:13:55;;;;;;;51.60;29.07;;;;;;;5.45;98.67;101705.13;1467276;88;21745;-89
2022/11/27 10:16:32;;;;;;;33.35;19.02;;;;;;;5.41;97.71;101698.73;1455351;88;22343;-92
2022/11/27 10:19:28;;;;;;;54.30;29.30;;;;;;;5.35;97.86;101699.50;1470637;88;21543;-91
2022/11/27 10:22:02;;;;;;;68.93;33.70;;;;;;;5.32;98.37;101699.67;1409571;91;22270;-88
2022/11/27 10:25:11;;;;;;;95.30;43.47;;;;;;;5.28;98.87;101700.31;1428396;90;21464;-91
2022/11/27 10:27:46;;;;;;;56.07;29.60;;;;;;;5.26;99.37;101692.97;1482644;87;21454;-88
2022/11/27 10:30:19;;;;;;;63.77;34.60;;;;;;;5.23;98.45;101698.39;1459315;87;22379;-93
2022/11/27 10:32:49;;;;;;;54.90;29.33;;;;;;;5.28;99.11;101691.59;1467617;87;21338;-89
2022/11/27 10:35:21;;;;;;;66.07;32.95;;;;;;;5.19;99.10;101689.00;1476092;87;21448;-88
2022/11/27 10:37:55;;;;;;;60.80;32.67;;;;;;;5.16;99.29;101692.62;1473570;87;21373;-90
2022/11/27 10:40:42;;;;;;;64.03;33.97;;;;;;;5.12;99.85;101694.17;1480650;87;22459;-92
2022/11/27 10:43:23;;;;;;;65.30;33.83;;;;;;;5.03;100.00;101692.05;1485254;87;21515;-88
2022/11/27 10:45:57;;;;;;;61.25;31.52;;;;;;;5.03;100.00;101683.70;1479583;87;21403;-92
2022/11/27 10:48:23;;;;;;;65.30;34.50;;;;;;;5.15;100.00;101682.20;1480398;87;21359;-89
2022/11/27 10:50:50;;;;;;;62.37;33.17;;;;;;;5.19;100.00;101678.50;1450457;87;21396;-89
2022/11/27 10:53:30;;;;;;;65.13;35.97;;;;;;;5.26;100.00;101671.97;1458456;87;21353;-93
2022/11/27 10:56:23;;;;;;;66.62;35.10;;;;;;;5.23;99.98;101672.14;1450662;89;21499;-88
2022/11/27 10:59:04;;;;;;;64.43;34.53;;;;;;;5.25;100.00;101671.59;1465865;89;22934;-90
2022/11/27 11:01:46;;;;;;;63.50;35.73;;;;;;;5.29;100.00;101666.55;1459196;89;21536;-91
2022/11/27 11:04:16;;;;;;;75.53;38.90;;;;;;;5.33;100.00;101669.88;1459250;89;21515;-89
2022/11/27 11:06:48;;;;;;;82.80;47.13;;;;;;;5.37;100.00;101672.23;1460759;89;21338;-91
2022/11/27 11:09:28;;;;;;;90.70;45.10;;;;;;;5.45;100.00;101676.23;1461515;89;21315;-91
2022/11/27 11:12:06;;;;;;;91.33;47.57;;;;;;;5.51;100.00;101675.91;1465436;87;21541;-93
2022/11/27 11:14:32;;;;;;;87.80;44.43;;;;;;;5.54;100.00;101665.23;1444869;89;21405;-93
2022/11/27 11:17:00;;;;;;;82.37;44.13;;;;;;;5.60;100.00;101664.88;1459141;89;21708;-90
2022/11/27 11:19:32;;;;;;;88.73;44.63;;;;;;;5.66;100.00;101660.59;1439644;89;21594;-91
2022/11/27 11:22:06;;;;;;;83.00;42.77;;;;;;;5.73;100.00;101659.34;1456559;89;21500;-92
2022/11/27 11:24:41;;;;;;;87.33;42.90;;;;;;;5.78;100.00;101662.55;1432005;89;21492;-91